Aviation Digital Data Service (ADDS)

Output produced by METARs form (0542 UTC 19 February 2019)
found at http://www.aviationweather.gov/metar/data/
 
METAR text: ZWWW 190530Z 32002MPS 5000 FU NSC M08/M14 Q1018 NOSIG
Conditions at: ZWWW (URUM-QI/DIWOPU , CN) observed 0530 UTC 19 February 2019
Temperature: -8.0°C (18°F)
Dewpoint: -14.0°C ( 7°F) [RH = 62%]
Pressure (altimeter): 30.06 inches Hg (1018.0 mb)
Winds: from the NW (320 degrees) at 5 MPH (4 knots; 2.1 m/s)
Visibility: 3 miles ( 5 km)
Ceiling: at least 12,000 feet AGL
Clouds: sky clear below 12,000 feet AGL
Weather: FU  (smoke)

METAR text: ZWWW 190500Z 32002MPS 6000 NSC M08/M14 Q1018 NOSIG
Conditions at: ZWWW (URUM-QI/DIWOPU , CN) observed 0500 UTC 19 February 2019
Temperature: -8.0°C (18°F)
Dewpoint: -14.0°C ( 7°F) [RH = 62%]
Pressure (altimeter): 30.06 inches Hg (1018.0 mb)
Winds: from the NW (320 degrees) at 5 MPH (4 knots; 2.1 m/s)
Visibility: 4 miles ( 6 km)
Ceiling: at least 12,000 feet AGL
Clouds: sky clear below 12,000 feet AGL
Weather: no significant weather observed at this time

METAR text: ZWWW 190430Z 32002MPS 6000 NSC M08/M14 Q1018 NOSIG
Conditions at: ZWWW (URUM-QI/DIWOPU , CN) observed 0430 UTC 19 February 2019
Temperature: -8.0°C (18°F)
Dewpoint: -14.0°C ( 7°F) [RH = 62%]
Pressure (altimeter): 30.06 inches Hg (1018.0 mb)
Winds: from the NW (320 degrees) at 5 MPH (4 knots; 2.1 m/s)
Visibility: 4 miles ( 6 km)
Ceiling: at least 12,000 feet AGL
Clouds: sky clear below 12,000 feet AGL
Weather: no significant weather observed at this time

METAR text: ZWWW 190400Z 30001MPS 6000 NSC M09/M14 Q1018 NOSIG
Conditions at: ZWWW (URUM-QI/DIWOPU , CN) observed 0400 UTC 19 February 2019
Temperature: -9.0°C (16°F)
Dewpoint: -14.0°C ( 7°F) [RH = 67%]
Pressure (altimeter): 30.06 inches Hg (1018.0 mb)
Winds: from the WNW (300 degrees) at 2 MPH (2 knots; 1.0 m/s)
Visibility: 4 miles ( 6 km)
Ceiling: at least 12,000 feet AGL
Clouds: sky clear below 12,000 feet AGL
Weather: no significant weather observed at this time

METAR text: ZWWW 190330Z 29002MPS 6000 NSC M10/M15 Q1018 NOSIG
Conditions at: ZWWW (URUM-QI/DIWOPU , CN) observed 0330 UTC 19 February 2019
Temperature: -10.0°C (14°F)
Dewpoint: -15.0°C ( 5°F) [RH = 67%]
Pressure (altimeter): 30.06 inches Hg (1018.0 mb)
Winds: from the WNW (290 degrees) at 5 MPH (4 knots; 2.1 m/s)
Visibility: 4 miles ( 6 km)
Ceiling: at least 12,000 feet AGL
Clouds: sky clear below 12,000 feet AGL
Weather: no significant weather observed at this time

METAR text: ZWWW 190300Z VRB01MPS 6000 NSC M09/M15 Q1017 NOSIG
Conditions at: ZWWW (URUM-QI/DIWOPU , CN) observed 0300 UTC 19 February 2019
Temperature: -9.0°C (16°F)
Dewpoint: -15.0°C ( 5°F) [RH = 62%]
Pressure (altimeter): 30.03 inches Hg (1017.0 mb)
Winds: variable direction winds at 2 MPH (2 knots; 1.0 m/s)
Visibility: 4 miles ( 6 km)
Ceiling: at least 12,000 feet AGL
Clouds: sky clear below 12,000 feet AGL
Weather: no significant weather observed at this time

METAR text: ZWWW 190230Z 26003MPS 5000 FU NSC M10/M15 Q1017 NOSIG
Conditions at: ZWWW (URUM-QI/DIWOPU , CN) observed 0230 UTC 19 February 2019
Temperature: -10.0°C (14°F)
Dewpoint: -15.0°C ( 5°F) [RH = 67%]
Pressure (altimeter): 30.03 inches Hg (1017.0 mb)
Winds: from the W (260 degrees) at 7 MPH (6 knots; 3.1 m/s)
Visibility: 3 miles ( 5 km)
Ceiling: at least 12,000 feet AGL
Clouds: sky clear below 12,000 feet AGL
Weather: FU  (smoke)

METAR text: ZWWW 190200Z 25003MPS 5000 FU NSC M12/M16 Q1017 NOSIG
Conditions at: ZWWW (URUM-QI/DIWOPU , CN) observed 0200 UTC 19 February 2019
Temperature: -12.0°C (10°F)
Dewpoint: -16.0°C ( 3°F) [RH = 72%]
Pressure (altimeter): 30.03 inches Hg (1017.0 mb)
Winds: from the WSW (250 degrees) at 7 MPH (6 knots; 3.1 m/s)
Visibility: 3 miles ( 5 km)
Ceiling: at least 12,000 feet AGL
Clouds: sky clear below 12,000 feet AGL
Weather: FU  (smoke)

METAR text: ZWWW 190130Z 23002MPS 5000 FU NSC M11/M15 Q1016 NOSIG
Conditions at: ZWWW (URUM-QI/DIWOPU , CN) observed 0130 UTC 19 February 2019
Temperature: -11.0°C (12°F)
Dewpoint: -15.0°C ( 5°F) [RH = 72%]
Pressure (altimeter): 30.00 inches Hg (1016.0 mb)
Winds: from the SW (230 degrees) at 5 MPH (4 knots; 2.1 m/s)
Visibility: 3 miles ( 5 km)
Ceiling: at least 12,000 feet AGL
Clouds: sky clear below 12,000 feet AGL
Weather: FU  (smoke)

METAR text: ZWWW 190100Z VRB01MPS 5000 FU NSC M11/M15 Q1016 NOSIG
Conditions at: ZWWW (URUM-QI/DIWOPU , CN) observed 0100 UTC 19 February 2019
Temperature: -11.0°C (12°F)
Dewpoint: -15.0°C ( 5°F) [RH = 72%]
Pressure (altimeter): 30.00 inches Hg (1016.0 mb)
Winds: variable direction winds at 2 MPH (2 knots; 1.0 m/s)
Visibility: 3 miles ( 5 km)
Ceiling: at least 12,000 feet AGL
Clouds: sky clear below 12,000 feet AGL
Weather: FU  (smoke)

METAR text: ZWWW 190030Z 24002MPS 6000 NSC M12/M16 Q1016 NOSIG
Conditions at: ZWWW (URUM-QI/DIWOPU , CN) observed 0030 UTC 19 February 2019
Temperature: -12.0°C (10°F)
Dewpoint: -16.0°C ( 3°F) [RH = 72%]
Pressure (altimeter): 30.00 inches Hg (1016.0 mb)
Winds: from the WSW (240 degrees) at 5 MPH (4 knots; 2.1 m/s)
Visibility: 4 miles ( 6 km)
Ceiling: at least 12,000 feet AGL
Clouds: sky clear below 12,000 feet AGL
Weather: no significant weather observed at this time

METAR text: ZWWW 190000Z 24002MPS 7000 NSC M13/M16 Q1015 NOSIG
Conditions at: ZWWW (URUM-QI/DIWOPU , CN) observed 0000 UTC 19 February 2019
Temperature: -13.0°C ( 9°F)
Dewpoint: -16.0°C ( 3°F) [RH = 78%]
Pressure (altimeter): 29.97 inches Hg (1015.0 mb)
Winds: from the WSW (240 degrees) at 5 MPH (4 knots; 2.1 m/s)
Visibility: 4 miles ( 7 km)
Ceiling: at least 12,000 feet AGL
Clouds: sky clear below 12,000 feet AGL
Weather: no significant weather observed at this time

METAR text: ZWWW 182330Z VRB01MPS 7000 NSC M11/M15 Q1015 NOSIG
Conditions at: ZWWW (URUM-QI/DIWOPU , CN) observed 2330 UTC 18 February 2019
Temperature: -11.0°C (12°F)
Dewpoint: -15.0°C ( 5°F) [RH = 72%]
Pressure (altimeter): 29.97 inches Hg (1015.0 mb)
Winds: variable direction winds at 2 MPH (2 knots; 1.0 m/s)
Visibility: 4 miles ( 7 km)
Ceiling: at least 12,000 feet AGL
Clouds: sky clear below 12,000 feet AGL
Weather: no significant weather observed at this time

METAR text: ZWWW 182300Z VRB01MPS 6000 NSC M12/M15 Q1015 NOSIG
Conditions at: ZWWW (URUM-QI/DIWOPU , CN) observed 2300 UTC 18 February 2019
Temperature: -12.0°C (10°F)
Dewpoint: -15.0°C ( 5°F) [RH = 78%]
Pressure (altimeter): 29.97 inches Hg (1015.0 mb)
Winds: variable direction winds at 2 MPH (2 knots; 1.0 m/s)
Visibility: 4 miles ( 6 km)
Ceiling: at least 12,000 feet AGL
Clouds: sky clear below 12,000 feet AGL
Weather: no significant weather observed at this time

METAR text: ZWWW 182230Z VRB01MPS 6000 NSC M12/M16 Q1015 NOSIG
Conditions at: ZWWW (URUM-QI/DIWOPU , CN) observed 2230 UTC 18 February 2019
Temperature: -12.0°C (10°F)
Dewpoint: -16.0°C ( 3°F) [RH = 72%]
Pressure (altimeter): 29.97 inches Hg (1015.0 mb)
Winds: variable direction winds at 2 MPH (2 knots; 1.0 m/s)
Visibility: 4 miles ( 6 km)
Ceiling: at least 12,000 feet AGL
Clouds: sky clear below 12,000 feet AGL
Weather: no significant weather observed at this time

METAR text: ZWWW 182200Z 25002MPS 6000 NSC M12/M15 Q1015 NOSIG
Conditions at: ZWWW (URUM-QI/DIWOPU , CN) observed 2200 UTC 18 February 2019
Temperature: -12.0°C (10°F)
Dewpoint: -15.0°C ( 5°F) [RH = 78%]
Pressure (altimeter): 29.97 inches Hg (1015.0 mb)
Winds: from the WSW (250 degrees) at 5 MPH (4 knots; 2.1 m/s)
Visibility: 4 miles ( 6 km)
Ceiling: at least 12,000 feet AGL
Clouds: sky clear below 12,000 feet AGL
Weather: no significant weather observed at this time

METAR text: ZWWW 182130Z 25002MPS 5000 FU NSC M11/M15 Q1015 NOSIG
Conditions at: ZWWW (URUM-QI/DIWOPU , CN) observed 2130 UTC 18 February 2019
Temperature: -11.0°C (12°F)
Dewpoint: -15.0°C ( 5°F) [RH = 72%]
Pressure (altimeter): 29.97 inches Hg (1015.0 mb)
Winds: from the WSW (250 degrees) at 5 MPH (4 knots; 2.1 m/s)
Visibility: 3 miles ( 5 km)
Ceiling: at least 12,000 feet AGL
Clouds: sky clear below 12,000 feet AGL
Weather: FU  (smoke)

METAR text: ZWWW 182100Z 26002MPS 5000 FU NSC M12/M16 Q1016 NOSIG
Conditions at: ZWWW (URUM-QI/DIWOPU , CN) observed 2100 UTC 18 February 2019
Temperature: -12.0°C (10°F)
Dewpoint: -16.0°C ( 3°F) [RH = 72%]
Pressure (altimeter): 30.00 inches Hg (1016.0 mb)
Winds: from the W (260 degrees) at 5 MPH (4 knots; 2.1 m/s)
Visibility: 3 miles ( 5 km)
Ceiling: at least 12,000 feet AGL
Clouds: sky clear below 12,000 feet AGL
Weather: FU  (smoke)

METAR text: ZWWW 182030Z 25002MPS 4000 FU NSC M13/M16 Q1016 NOSIG
Conditions at: ZWWW (URUM-QI/DIWOPU , CN) observed 2030 UTC 18 February 2019
Temperature: -13.0°C ( 9°F)
Dewpoint: -16.0°C ( 3°F) [RH = 78%]
Pressure (altimeter): 30.00 inches Hg (1016.0 mb)
Winds: from the WSW (250 degrees) at 5 MPH (4 knots; 2.1 m/s)
Visibility: 2.49 miles (4.01 km)
Ceiling: at least 12,000 feet AGL
Clouds: sky clear below 12,000 feet AGL
Weather: FU  (smoke)

METAR text: ZWWW 182000Z 26003MPS 4000 FU NSC M14/M17 Q1016 NOSIG
Conditions at: ZWWW (URUM-QI/DIWOPU , CN) observed 2000 UTC 18 February 2019
Temperature: -14.0°C ( 7°F)
Dewpoint: -17.0°C ( 1°F) [RH = 78%]
Pressure (altimeter): 30.00 inches Hg (1016.0 mb)
Winds: from the W (260 degrees) at 7 MPH (6 knots; 3.1 m/s)
Visibility: 2.49 miles (4.01 km)
Ceiling: at least 12,000 feet AGL
Clouds: sky clear below 12,000 feet AGL
Weather: FU  (smoke)

METAR text: ZWWW 181930Z 27002MPS 3000 FU NSC M12/M15 Q1015 NOSIG
Conditions at: ZWWW (URUM-QI/DIWOPU , CN) observed 1930 UTC 18 February 2019
Temperature: -12.0°C (10°F)
Dewpoint: -15.0°C ( 5°F) [RH = 78%]
Pressure (altimeter): 29.97 inches Hg (1015.0 mb)
Winds: from the W (270 degrees) at 5 MPH (4 knots; 2.1 m/s)
Visibility: 1.86 miles (2.99 km)
Ceiling: at least 12,000 feet AGL
Clouds: sky clear below 12,000 feet AGL
Weather: FU  (smoke)

METAR text: ZWWW 181900Z 30002MPS 4000 FU NSC M13/M16 Q1015 NOSIG
Conditions at: ZWWW (URUM-QI/DIWOPU , CN) observed 1900 UTC 18 February 2019
Temperature: -13.0°C ( 9°F)
Dewpoint: -16.0°C ( 3°F) [RH = 78%]
Pressure (altimeter): 29.97 inches Hg (1015.0 mb)
Winds: from the WNW (300 degrees) at 5 MPH (4 knots; 2.1 m/s)
Visibility: 2.49 miles (4.01 km)
Ceiling: at least 12,000 feet AGL
Clouds: sky clear below 12,000 feet AGL
Weather: FU  (smoke)

METAR text: ZWWW 181830Z VRB01MPS 4000 FU NSC M13/M15 Q1015 NOSIG
Conditions at: ZWWW (URUM-QI/DIWOPU , CN) observed 1830 UTC 18 February 2019
Temperature: -13.0°C ( 9°F)
Dewpoint: -15.0°C ( 5°F) [RH = 85%]
Pressure (altimeter): 29.97 inches Hg (1015.0 mb)
Winds: variable direction winds at 2 MPH (2 knots; 1.0 m/s)
Visibility: 2.49 miles (4.01 km)
Ceiling: at least 12,000 feet AGL
Clouds: sky clear below 12,000 feet AGL
Weather: FU  (smoke)

METAR text: ZWWW 181800Z VRB01MPS 3000 FU NSC M12/M15 Q1016 NOSIG
Conditions at: ZWWW (URUM-QI/DIWOPU , CN) observed 1800 UTC 18 February 2019
Temperature: -12.0°C (10°F)
Dewpoint: -15.0°C ( 5°F) [RH = 78%]
Pressure (altimeter): 30.00 inches Hg (1016.0 mb)
Winds: variable direction winds at 2 MPH (2 knots; 1.0 m/s)
Visibility: 1.86 miles (2.99 km)
Ceiling: at least 12,000 feet AGL
Clouds: sky clear below 12,000 feet AGL
Weather: FU  (smoke)

METAR text: ZWWW 181730Z VRB01MPS 3000 FU NSC M11/M14 Q1016 NOSIG
Conditions at: ZWWW (URUM-QI/DIWOPU , CN) observed 1730 UTC 18 February 2019
Temperature: -11.0°C (12°F)
Dewpoint: -14.0°C ( 7°F) [RH = 78%]
Pressure (altimeter): 30.00 inches Hg (1016.0 mb)
Winds: variable direction winds at 2 MPH (2 knots; 1.0 m/s)
Visibility: 1.86 miles (2.99 km)
Ceiling: at least 12,000 feet AGL
Clouds: sky clear below 12,000 feet AGL
Weather: FU  (smoke)

METAR text: ZWWW 181700Z 28001MPS 3000 FU NSC M12/M15 Q1016 NOSIG
Conditions at: ZWWW (URUM-QI/DIWOPU , CN) observed 1700 UTC 18 February 2019
Temperature: -12.0°C (10°F)
Dewpoint: -15.0°C ( 5°F) [RH = 78%]
Pressure (altimeter): 30.00 inches Hg (1016.0 mb)
Winds: from the W (280 degrees) at 2 MPH (2 knots; 1.0 m/s)
Visibility: 1.86 miles (2.99 km)
Ceiling: at least 12,000 feet AGL
Clouds: sky clear below 12,000 feet AGL
Weather: FU  (smoke)

METAR text: ZWWW 181630Z 27002MPS 3000 FU NSC M12/M15 Q1016 NOSIG
Conditions at: ZWWW (URUM-QI/DIWOPU , CN) observed 1630 UTC 18 February 2019
Temperature: -12.0°C (10°F)
Dewpoint: -15.0°C ( 5°F) [RH = 78%]
Pressure (altimeter): 30.00 inches Hg (1016.0 mb)
Winds: from the W (270 degrees) at 5 MPH (4 knots; 2.1 m/s)
Visibility: 1.86 miles (2.99 km)
Ceiling: at least 12,000 feet AGL
Clouds: sky clear below 12,000 feet AGL
Weather: FU  (smoke)

METAR text: ZWWW 181600Z 28002MPS 2500 FU NSC M12/M15 Q1016 BECMG TL1630 3000 FU
Conditions at: ZWWW (URUM-QI/DIWOPU , CN) observed 1600 UTC 18 February 2019
Temperature: -12.0°C (10°F)
Dewpoint: -15.0°C ( 5°F) [RH = 78%]
Pressure (altimeter): 30.00 inches Hg (1016.0 mb)
Winds: from the W (280 degrees) at 5 MPH (4 knots; 2.1 m/s)
Visibility: 1.55 miles (2.49 km)
Ceiling: at least 12,000 feet AGL
Clouds: sky clear below 12,000 feet AGL
Weather: FU  (smoke)

METAR text: ZWWW 181530Z 00000MPS 2500 FU NSC M11/M14 Q1016 NOSIG
Conditions at: ZWWW (URUM-QI/DIWOPU , CN) observed 1530 UTC 18 February 2019
Temperature: -11.0°C (12°F)
Dewpoint: -14.0°C ( 7°F) [RH = 78%]
Pressure (altimeter): 30.00 inches Hg (1016.0 mb)
Winds: calm
Visibility: 1.55 miles (2.49 km)
Ceiling: at least 12,000 feet AGL
Clouds: sky clear below 12,000 feet AGL
Weather: FU  (smoke)

METAR text: ZWWW 181500Z 27001MPS 3000 FU NSC M12/M15 Q1016 BECMG TL1530 2500 FU
Conditions at: ZWWW (URUM-QI/DIWOPU , CN) observed 1500 UTC 18 February 2019
Temperature: -12.0°C (10°F)
Dewpoint: -15.0°C ( 5°F) [RH = 78%]
Pressure (altimeter): 30.00 inches Hg (1016.0 mb)
Winds: from the W (270 degrees) at 2 MPH (2 knots; 1.0 m/s)
Visibility: 1.86 miles (2.99 km)
Ceiling: at least 12,000 feet AGL
Clouds: sky clear below 12,000 feet AGL
Weather: FU  (smoke)

METAR text: ZWWW 181430Z VRB01MPS 3500 FU NSC M11/M14 Q1016 NOSIG
Conditions at: ZWWW (URUM-QI/DIWOPU , CN) observed 1430 UTC 18 February 2019
Temperature: -11.0°C (12°F)
Dewpoint: -14.0°C ( 7°F) [RH = 78%]
Pressure (altimeter): 30.00 inches Hg (1016.0 mb)
Winds: variable direction winds at 2 MPH (2 knots; 1.0 m/s)
Visibility: 2.17 miles (3.49 km)
Ceiling: at least 12,000 feet AGL
Clouds: sky clear below 12,000 feet AGL
Weather: FU  (smoke)

METAR text: ZWWW 181400Z 06002MPS 3500 FU NSC M10/M14 Q1016 NOSIG
Conditions at: ZWWW (URUM-QI/DIWOPU , CN) observed 1400 UTC 18 February 2019
Temperature: -10.0°C (14°F)
Dewpoint: -14.0°C ( 7°F) [RH = 72%]
Pressure (altimeter): 30.00 inches Hg (1016.0 mb)
Winds: from the ENE (60 degrees) at 5 MPH (4 knots; 2.1 m/s)
Visibility: 2.17 miles (3.49 km)
Ceiling: at least 12,000 feet AGL
Clouds: sky clear below 12,000 feet AGL
Weather: FU  (smoke)

METAR text: ZWWW 181330Z 04001MPS 3000 FU NSC M10/M14 Q1017 NOSIG
Conditions at: ZWWW (URUM-QI/DIWOPU , CN) observed 1330 UTC 18 February 2019
Temperature: -10.0°C (14°F)
Dewpoint: -14.0°C ( 7°F) [RH = 72%]
Pressure (altimeter): 30.03 inches Hg (1017.0 mb)
Winds: from the NE (40 degrees) at 2 MPH (2 knots; 1.0 m/s)
Visibility: 1.86 miles (2.99 km)
Ceiling: at least 12,000 feet AGL
Clouds: sky clear below 12,000 feet AGL
Weather: FU  (smoke)

METAR text: ZWWW 181300Z 05001MPS 2500 FU NSC M10/M14 Q1017 BECMG TL1330 3000 FU
Conditions at: ZWWW (URUM-QI/DIWOPU , CN) observed 1300 UTC 18 February 2019
Temperature: -10.0°C (14°F)
Dewpoint: -14.0°C ( 7°F) [RH = 72%]
Pressure (altimeter): 30.03 inches Hg (1017.0 mb)
Winds: from the NE (50 degrees) at 2 MPH (2 knots; 1.0 m/s)
Visibility: 1.55 miles (2.49 km)
Ceiling: at least 12,000 feet AGL
Clouds: sky clear below 12,000 feet AGL
Weather: FU  (smoke)

METAR text: ZWWW 181230Z VRB01MPS 2500 FU NSC M10/M14 Q1017 NOSIG
Conditions at: ZWWW (URUM-QI/DIWOPU , CN) observed 1230 UTC 18 February 2019
Temperature: -10.0°C (14°F)
Dewpoint: -14.0°C ( 7°F) [RH = 72%]
Pressure (altimeter): 30.03 inches Hg (1017.0 mb)
Winds: variable direction winds at 2 MPH (2 knots; 1.0 m/s)
Visibility: 1.55 miles (2.49 km)
Ceiling: at least 12,000 feet AGL
Clouds: sky clear below 12,000 feet AGL
Weather: FU  (smoke)

METAR text: ZWWW 181200Z 33001MPS 3000 FU NSC M11/M15 Q1017 BECMG TL1230 2500 FU
Conditions at: ZWWW (URUM-QI/DIWOPU , CN) observed 1200 UTC 18 February 2019
Temperature: -11.0°C (12°F)
Dewpoint: -15.0°C ( 5°F) [RH = 72%]
Pressure (altimeter): 30.03 inches Hg (1017.0 mb)
Winds: from the NNW (330 degrees) at 2 MPH (2 knots; 1.0 m/s)
Visibility: 1.86 miles (2.99 km)
Ceiling: at least 12,000 feet AGL
Clouds: sky clear below 12,000 feet AGL
Weather: FU  (smoke)

METAR text: ZWWW 181130Z VRB01MPS 2500 FU NSC M10/M15 Q1016 NOSIG
Conditions at: ZWWW (URUM-QI/DIWOPU , CN) observed 1130 UTC 18 February 2019
Temperature: -10.0°C (14°F)
Dewpoint: -15.0°C ( 5°F) [RH = 67%]
Pressure (altimeter): 30.00 inches Hg (1016.0 mb)
Winds: variable direction winds at 2 MPH (2 knots; 1.0 m/s)
Visibility: 1.55 miles (2.49 km)
Ceiling: at least 12,000 feet AGL
Clouds: sky clear below 12,000 feet AGL
Weather: FU  (smoke)

METAR text: ZWWW 181100Z 36001MPS 2500 FU NSC M09/M14 Q1016 BECMG TL1150 3000 FU
Conditions at: ZWWW (URUM-QI/DIWOPU , CN) observed 1100 UTC 18 February 2019
Temperature: -9.0°C (16°F)
Dewpoint: -14.0°C ( 7°F) [RH = 67%]
Pressure (altimeter): 30.00 inches Hg (1016.0 mb)
Winds: from the N (360 degrees) at 2 MPH (2 knots; 1.0 m/s)
Visibility: 1.55 miles (2.49 km)
Ceiling: at least 12,000 feet AGL
Clouds: sky clear below 12,000 feet AGL
Weather: FU  (smoke)

METAR text: ZWWW 181030Z 01001MPS 3000 FU NSC M09/M14 Q1016 NOSIG
Conditions at: ZWWW (URUM-QI/DIWOPU , CN) observed 1030 UTC 18 February 2019
Temperature: -9.0°C (16°F)
Dewpoint: -14.0°C ( 7°F) [RH = 67%]
Pressure (altimeter): 30.00 inches Hg (1016.0 mb)
Winds: from the N (10 degrees) at 2 MPH (2 knots; 1.0 m/s)
Visibility: 1.86 miles (2.99 km)
Ceiling: at least 12,000 feet AGL
Clouds: sky clear below 12,000 feet AGL
Weather: FU  (smoke)

METAR text: ZWWW 181000Z 02002MPS 3000 FU NSC M09/M14 Q1016 BECMG TL1050 2500 FU
Conditions at: ZWWW (URUM-QI/DIWOPU , CN) observed 1000 UTC 18 February 2019
Temperature: -9.0°C (16°F)
Dewpoint: -14.0°C ( 7°F) [RH = 67%]
Pressure (altimeter): 30.00 inches Hg (1016.0 mb)
Winds: from the NNE (20 degrees) at 5 MPH (4 knots; 2.1 m/s)
Visibility: 1.86 miles (2.99 km)
Ceiling: at least 12,000 feet AGL
Clouds: sky clear below 12,000 feet AGL
Weather: FU  (smoke)

METAR text: ZWWW 180930Z 03002MPS 3000 FU NSC M08/M14 Q1016 NOSIG
Conditions at: ZWWW (URUM-QI/DIWOPU , CN) observed 0930 UTC 18 February 2019
Temperature: -8.0°C (18°F)
Dewpoint: -14.0°C ( 7°F) [RH = 62%]
Pressure (altimeter): 30.00 inches Hg (1016.0 mb)
Winds: from the NNE (30 degrees) at 5 MPH (4 knots; 2.1 m/s)
Visibility: 1.86 miles (2.99 km)
Ceiling: at least 12,000 feet AGL
Clouds: sky clear below 12,000 feet AGL
Weather: FU  (smoke)

METAR text: ZWWW 180900Z 02002MPS 3000 FU NSC M08/M14 Q1016 NOSIG
Conditions at: ZWWW (URUM-QI/DIWOPU , CN) observed 0900 UTC 18 February 2019
Temperature: -8.0°C (18°F)
Dewpoint: -14.0°C ( 7°F) [RH = 62%]
Pressure (altimeter): 30.00 inches Hg (1016.0 mb)
Winds: from the NNE (20 degrees) at 5 MPH (4 knots; 2.1 m/s)
Visibility: 1.86 miles (2.99 km)
Ceiling: at least 12,000 feet AGL
Clouds: sky clear below 12,000 feet AGL
Weather: FU  (smoke)

METAR text: ZWWW 180830Z 04003MPS 2500 FU NSC M07/M13 Q1016 NOSIG
Conditions at: ZWWW (URUM-QI/DIWOPU , CN) observed 0830 UTC 18 February 2019
Temperature: -7.0°C (19°F)
Dewpoint: -13.0°C ( 9°F) [RH = 62%]
Pressure (altimeter): 30.00 inches Hg (1016.0 mb)
Winds: from the NE (40 degrees) at 7 MPH (6 knots; 3.1 m/s)
Visibility: 1.55 miles (2.49 km)
Ceiling: at least 12,000 feet AGL
Clouds: sky clear below 12,000 feet AGL
Weather: FU  (smoke)

METAR text: ZWWW 180800Z 04002MPS 2500 FU NSC M07/M14 Q1016 BECMG TL0850 3000 FU
Conditions at: ZWWW (URUM-QI/DIWOPU , CN) observed 0800 UTC 18 February 2019
Temperature: -7.0°C (19°F)
Dewpoint: -14.0°C ( 7°F) [RH = 57%]
Pressure (altimeter): 30.00 inches Hg (1016.0 mb)
Winds: from the NE (40 degrees) at 5 MPH (4 knots; 2.1 m/s)
Visibility: 1.55 miles (2.49 km)
Ceiling: at least 12,000 feet AGL
Clouds: sky clear below 12,000 feet AGL
Weather: FU  (smoke)

METAR text: ZWWW 180730Z 01002MPS 2500 FU NSC M09/M14 Q1016 NOSIG
Conditions at: ZWWW (URUM-QI/DIWOPU , CN) observed 0730 UTC 18 February 2019
Temperature: -9.0°C (16°F)
Dewpoint: -14.0°C ( 7°F) [RH = 67%]
Pressure (altimeter): 30.00 inches Hg (1016.0 mb)
Winds: from the N (10 degrees) at 5 MPH (4 knots; 2.1 m/s)
Visibility: 1.55 miles (2.49 km)
Ceiling: at least 12,000 feet AGL
Clouds: sky clear below 12,000 feet AGL
Weather: FU  (smoke)

METAR text: ZWWW 180700Z 02003MPS 2500 FU NSC M08/M13 Q1017 NOSIG
Conditions at: ZWWW (URUM-QI/DIWOPU , CN) observed 0700 UTC 18 February 2019
Temperature: -8.0°C (18°F)
Dewpoint: -13.0°C ( 9°F) [RH = 67%]
Pressure (altimeter): 30.03 inches Hg (1017.0 mb)
Winds: from the NNE (20 degrees) at 7 MPH (6 knots; 3.1 m/s)
Visibility: 1.55 miles (2.49 km)
Ceiling: at least 12,000 feet AGL
Clouds: sky clear below 12,000 feet AGL
Weather: FU  (smoke)

METAR text: ZWWW 180630Z 03002MPS 350V050 2500 FU NSC M08/M14 Q1017 NOSIG
Conditions at: ZWWW (URUM-QI/DIWOPU , CN) observed 0630 UTC 18 February 2019
Temperature: -8.0°C (18°F)
Dewpoint: -14.0°C ( 7°F) [RH = 62%]
Pressure (altimeter): 30.03 inches Hg (1017.0 mb)
Winds: from the NNE (30 degrees) at 5 MPH (4 knots; 2.1 m/s)
Visibility: 1.55 miles (2.49 km)
Ceiling: at least 12,000 feet AGL
Clouds: sky clear below 12,000 feet AGL
Weather: FU  (smoke)

METAR text: ZWWW 180600Z 34003MPS 2500 FU NSC M08/M14 Q1017 NOSIG
Conditions at: ZWWW (URUM-QI/DIWOPU , CN) observed 0600 UTC 18 February 2019
Temperature: -8.0°C (18°F)
Dewpoint: -14.0°C ( 7°F) [RH = 62%]
Pressure (altimeter): 30.03 inches Hg (1017.0 mb)
Winds: from the NNW (340 degrees) at 7 MPH (6 knots; 3.1 m/s)
Visibility: 1.55 miles (2.49 km)
Ceiling: at least 12,000 feet AGL
Clouds: sky clear below 12,000 feet AGL
Weather: FU  (smoke)

METAR text: ZWWW 180530Z 35002MPS 2500 FU NSC M09/M14 Q1017 NOSIG
Conditions at: ZWWW (URUM-QI/DIWOPU , CN) observed 0530 UTC 18 February 2019
Temperature: -9.0°C (16°F)
Dewpoint: -14.0°C ( 7°F) [RH = 67%]
Pressure (altimeter): 30.03 inches Hg (1017.0 mb)
Winds: from the N (350 degrees) at 5 MPH (4 knots; 2.1 m/s)
Visibility: 1.55 miles (2.49 km)
Ceiling: at least 12,000 feet AGL
Clouds: sky clear below 12,000 feet AGL
Weather: FU  (smoke)

METAR text: ZWWW 180500Z 35002MPS 3000 FU NSC M09/M13 Q1017 BECMG TL0550 2500 FU
Conditions at: ZWWW (URUM-QI/DIWOPU , CN) observed 0500 UTC 18 February 2019
Temperature: -9.0°C (16°F)
Dewpoint: -13.0°C ( 9°F) [RH = 73%]
Pressure (altimeter): 30.03 inches Hg (1017.0 mb)
Winds: from the N (350 degrees) at 5 MPH (4 knots; 2.1 m/s)
Visibility: 1.86 miles (2.99 km)
Ceiling: at least 12,000 feet AGL
Clouds: sky clear below 12,000 feet AGL
Weather: FU  (smoke)

METAR text: ZWWW 180430Z VRB01MPS 3000 FU NSC M10/M14 Q1017 NOSIG
Conditions at: ZWWW (URUM-QI/DIWOPU , CN) observed 0430 UTC 18 February 2019
Temperature: -10.0°C (14°F)
Dewpoint: -14.0°C ( 7°F) [RH = 72%]
Pressure (altimeter): 30.03 inches Hg (1017.0 mb)
Winds: variable direction winds at 2 MPH (2 knots; 1.0 m/s)
Visibility: 1.86 miles (2.99 km)
Ceiling: at least 12,000 feet AGL
Clouds: sky clear below 12,000 feet AGL
Weather: FU  (smoke)

METAR text: ZWWW 180400Z 34001MPS 2500 FU NSC M11/M15 Q1017 BECMG TL0430 3000 FU
Conditions at: ZWWW (URUM-QI/DIWOPU , CN) observed 0400 UTC 18 February 2019
Temperature: -11.0°C (12°F)
Dewpoint: -15.0°C ( 5°F) [RH = 72%]
Pressure (altimeter): 30.03 inches Hg (1017.0 mb)
Winds: from the NNW (340 degrees) at 2 MPH (2 knots; 1.0 m/s)
Visibility: 1.55 miles (2.49 km)
Ceiling: at least 12,000 feet AGL
Clouds: sky clear below 12,000 feet AGL
Weather: FU  (smoke)

METAR text: ZWWW 180330Z VRB01MPS 2500 FU NSC M12/M15 Q1018 NOSIG
Conditions at: ZWWW (URUM-QI/DIWOPU , CN) observed 0330 UTC 18 February 2019
Temperature: -12.0°C (10°F)
Dewpoint: -15.0°C ( 5°F) [RH = 78%]
Pressure (altimeter): 30.06 inches Hg (1018.0 mb)
Winds: variable direction winds at 2 MPH (2 knots; 1.0 m/s)
Visibility: 1.55 miles (2.49 km)
Ceiling: at least 12,000 feet AGL
Clouds: sky clear below 12,000 feet AGL
Weather: FU  (smoke)

METAR text: ZWWW 180300Z 03001MPS 2200 FU NSC M14/M16 Q1018 BECMG TL0450 3000 FU
Conditions at: ZWWW (URUM-QI/DIWOPU , CN) observed 0300 UTC 18 February 2019
Temperature: -14.0°C ( 7°F)
Dewpoint: -16.0°C ( 3°F) [RH = 85%]
Pressure (altimeter): 30.06 inches Hg (1018.0 mb)
Winds: from the NNE (30 degrees) at 2 MPH (2 knots; 1.0 m/s)
Visibility: 1.37 miles (2.20 km)
Ceiling: at least 12,000 feet AGL
Clouds: sky clear below 12,000 feet AGL
Weather: FU  (smoke)

METAR text: ZWWW 180230Z VRB01MPS 2500 FU NSC M14/M17 Q1018 NOSIG
Conditions at: ZWWW (URUM-QI/DIWOPU , CN) observed 0230 UTC 18 February 2019
Temperature: -14.0°C ( 7°F)
Dewpoint: -17.0°C ( 1°F) [RH = 78%]
Pressure (altimeter): 30.06 inches Hg (1018.0 mb)
Winds: variable direction winds at 2 MPH (2 knots; 1.0 m/s)
Visibility: 1.55 miles (2.49 km)
Ceiling: at least 12,000 feet AGL
Clouds: sky clear below 12,000 feet AGL
Weather: FU  (smoke)

METAR text: ZWWW 180200Z 14002MPS 100V200 2500 FU NSC M12/M16 Q1018 BECMG TL0250 3000 FU
Conditions at: ZWWW (URUM-QI/DIWOPU , CN) observed 0200 UTC 18 February 2019
Temperature: -12.0°C (10°F)
Dewpoint: -16.0°C ( 3°F) [RH = 72%]
Pressure (altimeter): 30.06 inches Hg (1018.0 mb)
Winds: from the SE (140 degrees) at 5 MPH (4 knots; 2.1 m/s)
Visibility: 1.55 miles (2.49 km)
Ceiling: at least 12,000 feet AGL
Clouds: sky clear below 12,000 feet AGL
Weather: FU  (smoke)

METAR text: ZWWW 180130Z 15003MPS 120V200 2000 BR NSC M13/M16 Q1017 NOSIG
Conditions at: ZWWW (URUM-QI/DIWOPU , CN) observed 0130 UTC 18 February 2019
Temperature: -13.0°C ( 9°F)
Dewpoint: -16.0°C ( 3°F) [RH = 78%]
Pressure (altimeter): 30.03 inches Hg (1017.0 mb)
Winds: from the SSE (150 degrees) at 7 MPH (6 knots; 3.1 m/s)
Visibility: 1.24 miles (2.00 km)
Ceiling: at least 12,000 feet AGL
Clouds: sky clear below 12,000 feet AGL
Weather: BR  (mist)

METAR text: ZWWW 180100Z 16002MPS 100V240 1800 BR NSC M14/M17 Q1017 NOSIG
Conditions at: ZWWW (URUM-QI/DIWOPU , CN) observed 0100 UTC 18 February 2019
Temperature: -14.0°C ( 7°F)
Dewpoint: -17.0°C ( 1°F) [RH = 78%]
Pressure (altimeter): 30.03 inches Hg (1017.0 mb)
Winds: from the SSE (160 degrees) at 5 MPH (4 knots; 2.1 m/s)
Visibility: 1.12 miles (1.80 km)
Ceiling: at least 12,000 feet AGL
Clouds: sky clear below 12,000 feet AGL
Weather: BR  (mist)

METAR text: ZWWW 180030Z 16003MPS 130V210 1600 -SN BR FEW013 BKN040 M14/M16 Q1017 NOSIG
Conditions at: ZWWW (URUM-QI/DIWOPU , CN) observed 0030 UTC 18 February 2019
Temperature: -14.0°C ( 7°F)
Dewpoint: -16.0°C ( 3°F) [RH = 85%]
Pressure (altimeter): 30.03 inches Hg (1017.0 mb)
Winds: from the SSE (160 degrees) at 7 MPH (6 knots; 3.1 m/s)
Visibility: 0.99 miles (1.59 km)
Ceiling: 4000 feet AGL
Clouds: few clouds at 1300 feet AGL
broken clouds at 4000 feet AGL
Weather: -SN BR  (light snow, mist)

METAR text: ZWWW 180000Z 18002MPS 140V230 2000 -SN BR FEW013 BKN040 M15/M17 Q1017 NOSIG
Conditions at: ZWWW (URUM-QI/DIWOPU , CN) observed 0000 UTC 18 February 2019
Temperature: -15.0°C ( 5°F)
Dewpoint: -17.0°C ( 1°F) [RH = 85%]
Pressure (altimeter): 30.03 inches Hg (1017.0 mb)
Winds: from the S (180 degrees) at 5 MPH (4 knots; 2.1 m/s)
Visibility: 1.24 miles (2.00 km)
Ceiling: 4000 feet AGL
Clouds: few clouds at 1300 feet AGL
broken clouds at 4000 feet AGL
Weather: -SN BR  (light snow, mist)

METAR text: ZWWW 172330Z VRB01MPS 2000 -SN BR FEW013 M16/M18 Q1017 NOSIG
Conditions at: ZWWW (URUM-QI/DIWOPU , CN) observed 2330 UTC 17 February 2019
Temperature: -16.0°C ( 3°F)
Dewpoint: -18.0°C (-0°F) [RH = 85%]
Pressure (altimeter): 30.03 inches Hg (1017.0 mb)
Winds: variable direction winds at 2 MPH (2 knots; 1.0 m/s)
Visibility: 1.24 miles (2.00 km)
Ceiling: at least 12,000 feet AGL
Clouds: few clouds at 1300 feet AGL
Weather: -SN BR  (light snow, mist)

METAR text: ZWWW 172300Z 00000MPS 2000 BR NSC M17/M19 Q1017 NOSIG
Conditions at: ZWWW (URUM-QI/DIWOPU , CN) observed 2300 UTC 17 February 2019
Temperature: -17.0°C ( 1°F)
Dewpoint: -19.0°C (-2°F) [RH = 84%]
Pressure (altimeter): 30.03 inches Hg (1017.0 mb)
Winds: calm
Visibility: 1.24 miles (2.00 km)
Ceiling: at least 12,000 feet AGL
Clouds: sky clear below 12,000 feet AGL
Weather: BR  (mist)

METAR text: ZWWW 172230Z VRB01MPS 2000 BR NSC M16/M18 Q1016 NOSIG
Conditions at: ZWWW (URUM-QI/DIWOPU , CN) observed 2230 UTC 17 February 2019
Temperature: -16.0°C ( 3°F)
Dewpoint: -18.0°C (-0°F) [RH = 85%]
Pressure (altimeter): 30.00 inches Hg (1016.0 mb)
Winds: variable direction winds at 2 MPH (2 knots; 1.0 m/s)
Visibility: 1.24 miles (2.00 km)
Ceiling: at least 12,000 feet AGL
Clouds: sky clear below 12,000 feet AGL
Weather: BR  (mist)

METAR text: ZWWW 172200Z 00000MPS 2000 BR NSC M17/M19 Q1016 NOSIG
Conditions at: ZWWW (URUM-QI/DIWOPU , CN) observed 2200 UTC 17 February 2019
Temperature: -17.0°C ( 1°F)
Dewpoint: -19.0°C (-2°F) [RH = 84%]
Pressure (altimeter): 30.00 inches Hg (1016.0 mb)
Winds: calm
Visibility: 1.24 miles (2.00 km)
Ceiling: at least 12,000 feet AGL
Clouds: sky clear below 12,000 feet AGL
Weather: BR  (mist)

METAR text: ZWWW 172130Z VRB01MPS 2000 BR NSC M18/M20 Q1016 NOSIG
Conditions at: ZWWW (URUM-QI/DIWOPU , CN) observed 2130 UTC 17 February 2019
Temperature: -18.0°C (-0°F)
Dewpoint: -20.0°C (-4°F) [RH = 84%]
Pressure (altimeter): 30.00 inches Hg (1016.0 mb)
Winds: variable direction winds at 2 MPH (2 knots; 1.0 m/s)
Visibility: 1.24 miles (2.00 km)
Ceiling: at least 12,000 feet AGL
Clouds: sky clear below 12,000 feet AGL
Weather: BR  (mist)

METAR text: ZWWW 172100Z 26001MPS 2000 BR FEW030 M17/M19 Q1015 NOSIG
Conditions at: ZWWW (URUM-QI/DIWOPU , CN) observed 2100 UTC 17 February 2019
Temperature: -17.0°C ( 1°F)
Dewpoint: -19.0°C (-2°F) [RH = 84%]
Pressure (altimeter): 29.97 inches Hg (1015.0 mb)
Winds: from the W (260 degrees) at 2 MPH (2 knots; 1.0 m/s)
Visibility: 1.24 miles (2.00 km)
Ceiling: at least 12,000 feet AGL
Clouds: few clouds at 3000 feet AGL
Weather: BR  (mist)

METAR text: ZWWW 172030Z VRB01MPS 2500 -SN BR SCT030 M17/M19 Q1015 NOSIG
Conditions at: ZWWW (URUM-QI/DIWOPU , CN) observed 2030 UTC 17 February 2019
Temperature: -17.0°C ( 1°F)
Dewpoint: -19.0°C (-2°F) [RH = 84%]
Pressure (altimeter): 29.97 inches Hg (1015.0 mb)
Winds: variable direction winds at 2 MPH (2 knots; 1.0 m/s)
Visibility: 1.55 miles (2.49 km)
Ceiling: at least 12,000 feet AGL
Clouds: scattered clouds at 3000 feet AGL
Weather: -SN BR  (light snow, mist)

METAR text: ZWWW 172000Z 15001MPS 2500 -SN BR SCT030 M16/M18 Q1015 NOSIG
Conditions at: ZWWW (URUM-QI/DIWOPU , CN) observed 2000 UTC 17 February 2019
Temperature: -16.0°C ( 3°F)
Dewpoint: -18.0°C (-0°F) [RH = 85%]
Pressure (altimeter): 29.97 inches Hg (1015.0 mb)
Winds: from the SSE (150 degrees) at 2 MPH (2 knots; 1.0 m/s)
Visibility: 1.55 miles (2.49 km)
Ceiling: at least 12,000 feet AGL
Clouds: scattered clouds at 3000 feet AGL
Weather: -SN BR  (light snow, mist)

METAR text: ZWWW 171930Z VRB01MPS 2500 -SN BR SCT030 M17/M19 Q1015 NOSIG
Conditions at: ZWWW (URUM-QI/DIWOPU , CN) observed 1930 UTC 17 February 2019
Temperature: -17.0°C ( 1°F)
Dewpoint: -19.0°C (-2°F) [RH = 84%]
Pressure (altimeter): 29.97 inches Hg (1015.0 mb)
Winds: variable direction winds at 2 MPH (2 knots; 1.0 m/s)
Visibility: 1.55 miles (2.49 km)
Ceiling: at least 12,000 feet AGL
Clouds: scattered clouds at 3000 feet AGL
Weather: -SN BR  (light snow, mist)

METAR text: ZWWW 171900Z 27002MPS 3000 -SN BR SCT030 M16/M19 Q1016 NOSIG
Conditions at: ZWWW (URUM-QI/DIWOPU , CN) observed 1900 UTC 17 February 2019
Temperature: -16.0°C ( 3°F)
Dewpoint: -19.0°C (-2°F) [RH = 78%]
Pressure (altimeter): 30.00 inches Hg (1016.0 mb)
Winds: from the W (270 degrees) at 5 MPH (4 knots; 2.1 m/s)
Visibility: 1.86 miles (2.99 km)
Ceiling: at least 12,000 feet AGL
Clouds: scattered clouds at 3000 feet AGL
Weather: -SN BR  (light snow, mist)

METAR text: ZWWW 171830Z 26002MPS 3000 -SN BR FEW030 M17/M19 Q1016 NOSIG
Conditions at: ZWWW (URUM-QI/DIWOPU , CN) observed 1830 UTC 17 February 2019
Temperature: -17.0°C ( 1°F)
Dewpoint: -19.0°C (-2°F) [RH = 84%]
Pressure (altimeter): 30.00 inches Hg (1016.0 mb)
Winds: from the W (260 degrees) at 5 MPH (4 knots; 2.1 m/s)
Visibility: 1.86 miles (2.99 km)
Ceiling: at least 12,000 feet AGL
Clouds: few clouds at 3000 feet AGL
Weather: -SN BR  (light snow, mist)

METAR text: ZWWW 171800Z 29002MPS 3000 BR NSC M17/M20 Q1015 NOSIG
Conditions at: ZWWW (URUM-QI/DIWOPU , CN) observed 1800 UTC 17 February 2019
Temperature: -17.0°C ( 1°F)
Dewpoint: -20.0°C (-4°F) [RH = 77%]
Pressure (altimeter): 29.97 inches Hg (1015.0 mb)
Winds: from the WNW (290 degrees) at 5 MPH (4 knots; 2.1 m/s)
Visibility: 1.86 miles (2.99 km)
Ceiling: at least 12,000 feet AGL
Clouds: sky clear below 12,000 feet AGL
Weather: BR  (mist)

Forecast for: ZWWW (URUM-QI/DIWOPU , CN)
Text: TAF ZWWW 190319Z 1906/2006 36002MPS 3500 FU NSC TXM06/09Z TNM12/23Z
Forecast period: 0600 to 1200 UTC 19 February 2019
Forecast type: FROM: standard forecast or significant change
Winds: from the N (360 degrees) at 5 MPH (4 knots; 2.1 m/s)
Visibility: 2.17 miles (3.49 km)
Ceiling: unknown
Clouds: missing
Weather: FU  (smoke)
Text: BECMG 1912/1913 18002MPS 2500 FU
Forecast period: 1200 UTC 19 February 2019 to 0200 UTC 20 February 2019
Forecast type: BECOMING: Conditions expected to become as follows by 1300 UTC 19 February 2019
Winds: from the S (180 degrees) at 5 MPH (4 knots; 2.1 m/s)
Visibility: 1.55 miles (2.49 km)
Ceiling: unknown
Clouds: missing
Weather: FU  (smoke)
Text: BECMG 2002/2003 36002MPS
Forecast period: 0200 to 0600 UTC 20 February 2019
Forecast type: BECOMING: Conditions expected to become as follows by 0300 UTC 20 February 2019
Winds: from the N (360 degrees) at 5 MPH (4 knots; 2.1 m/s)
Visibility: 1.55 miles (2.49 km)
Ceiling: unknown
Clouds: missing
Weather: FU  (smoke)